createdAt,value
2023-02-02T00:56:44.251Z,332
2023-02-02T01:16:44.298Z,321
2023-02-02T01:36:44.404Z,326
2023-02-02T02:36:51.389Z,325
2023-02-02T02:56:44.339Z,337
2023-02-02T03:36:51.334Z,321
2023-02-02T03:56:51.295Z,327
2023-02-02T04:16:44.276Z,334
2023-02-02T04:56:50.726Z,358
2023-02-02T05:16:44.442Z,341
2023-02-02T05:36:44.214Z,346
2023-02-02T05:56:51.174Z,343
2023-02-02T06:16:50.983Z,351
2023-02-02T06:36:51.161Z,360
2023-02-02T06:56:44.111Z,358
2023-02-02T07:16:43.900Z,348
2023-02-02T07:36:51.107Z,348
2023-02-02T07:56:51.105Z,352
2023-02-02T08:16:44.081Z,350
2023-02-02T08:36:51.062Z,348
2023-02-02T08:56:51.037Z,359
2023-02-02T09:16:43.829Z,354
2023-02-02T09:36:43.986Z,381
2023-02-02T10:16:50.971Z,385
2023-02-02T10:36:43.951Z,380
2023-02-02T10:56:43.925Z,385
2023-02-02T11:16:50.949Z,385
2023-02-02T11:36:50.881Z,383
2023-02-02T12:16:43.880Z,383
2023-02-02T12:56:50.905Z,371
2023-02-02T13:16:43.816Z,383
2023-02-02T13:36:43.762Z,378
2023-02-02T14:16:50.916Z,376
2023-02-02T14:36:50.526Z,382
2023-02-02T14:56:43.703Z,382
2023-02-02T15:36:50.684Z,368
2023-02-02T15:56:43.653Z,376
2023-02-02T16:16:46.195Z,394
2023-02-02T16:56:50.615Z,393
2023-02-02T17:16:43.636Z,417
2023-02-02T17:36:43.098Z,395
2023-02-02T18:16:50.509Z,394
2023-02-02T18:56:43.648Z,400
2023-02-02T19:16:50.455Z,394
2023-02-02T19:36:50.464Z,390
2023-02-02T19:56:43.524Z,387
2023-02-02T20:16:43.441Z,385
2023-02-02T20:56:49.871Z,387
2023-02-02T21:16:43.419Z,385
2023-02-02T21:36:43.320Z,385
2023-02-02T22:16:50.331Z,399
2023-02-02T22:36:50.326Z,397
2023-02-02T22:56:43.292Z,398
2023-02-02T23:36:50.242Z,387
